createdAt,value
2018-12-06T00:08:18.956Z,5.90
2018-12-06T00:18:23.629Z,4.90
2018-12-06T00:28:28.265Z,3.97
2018-12-06T00:38:32.900Z,3.27
2018-12-06T00:48:37.840Z,3.30
2018-12-06T00:58:42.443Z,4.00
2018-12-06T01:08:47.163Z,3.53
2018-12-06T01:18:51.903Z,3.20
2018-12-06T01:28:56.603Z,3.87
2018-12-06T01:39:01.323Z,2.77
2018-12-06T01:49:05.931Z,2.70
2018-12-06T01:59:10.570Z,2.77
2018-12-06T02:09:15.289Z,3.00
2018-12-06T02:19:20.266Z,3.10
2018-12-06T02:29:26.876Z,2.57
2018-12-06T02:39:31.464Z,3.47
2018-12-06T02:49:37.803Z,2.67
2018-12-06T02:59:42.699Z,2.70
2018-12-06T03:09:47.239Z,2.80
2018-12-06T03:19:52.061Z,2.60
2018-12-06T03:29:57.554Z,2.60
2018-12-06T03:40:02.351Z,2.43
2018-12-06T03:50:07.438Z,2.40
2018-12-06T04:00:12.165Z,2.50
2018-12-06T04:10:17.078Z,2.50
2018-12-06T04:20:21.875Z,2.57
2018-12-06T04:30:26.590Z,2.60
2018-12-06T04:40:31.267Z,2.57
2018-12-06T04:50:36.022Z,2.33
2018-12-06T05:00:41.434Z,2.20
2018-12-06T05:10:46.199Z,2.30
2018-12-06T05:20:51.049Z,2.40
2018-12-06T05:30:55.829Z,2.37
2018-12-06T05:41:01.008Z,2.40
2018-12-06T05:51:05.585Z,2.40
2018-12-06T06:01:10.368Z,3.07
2018-12-06T06:11:15.079Z,2.20
2018-12-06T06:21:19.723Z,2.13
2018-12-06T06:31:24.374Z,3.17
2018-12-06T06:41:29.965Z,5.60
2018-12-06T06:51:34.767Z,1.93
2018-12-06T07:01:39.684Z,2.87
2018-12-06T07:11:44.375Z,2.10
2018-12-06T07:21:49.102Z,2.47
2018-12-06T07:31:53.877Z,2.90
2018-12-06T07:41:58.817Z,3.63
2018-12-06T07:52:03.689Z,2.10
2018-12-06T08:02:09.210Z,3.23
2018-12-06T08:12:14.305Z,4.97
2018-12-06T08:22:19.347Z,5.67
2018-12-06T08:32:24.795Z,2.27
2018-12-06T08:42:29.933Z,2.13
2018-12-06T08:52:34.762Z,3.87
2018-12-06T09:02:39.518Z,5.40
2018-12-06T09:12:44.897Z,10.20
2018-12-06T09:22:49.669Z,9.50
2018-12-06T09:32:55.403Z,7.43
2018-12-06T09:43:00.167Z,8.33
2018-12-06T09:53:05.856Z,9.27
2018-12-06T10:03:10.653Z,6.40
2018-12-06T10:13:15.778Z,7.43
2018-12-06T10:23:20.493Z,10.63
2018-12-06T10:33:25.210Z,13.10
2018-12-06T10:43:29.990Z,17.67
2018-12-06T10:53:35.252Z,25.47
2018-12-06T11:03:45.601Z,19.63
2018-12-06T11:13:58.010Z,23.13
2018-12-06T11:24:04.179Z,10.60
2018-12-06T11:34:09.242Z,10.50
2018-12-06T11:44:14.787Z,11.20
2018-12-06T11:54:19.503Z,15.37
2018-12-06T12:04:24.904Z,16.17
2018-12-06T12:14:29.671Z,11.13
2018-12-06T12:24:34.460Z,14.70
2018-12-06T12:34:39.786Z,11.40
2018-12-06T12:44:44.433Z,16.77
2018-12-06T12:54:49.406Z,11.13
2018-12-06T13:04:54.124Z,10.73
2018-12-06T13:14:59.748Z,9.60
2018-12-06T13:25:04.574Z,6.20
2018-12-06T13:35:09.423Z,9.70
2018-12-06T13:45:14.212Z,9.70
2018-12-06T13:55:18.871Z,8.90
2018-12-06T14:05:23.585Z,7.57
2018-12-06T14:15:28.278Z,6.73
2018-12-06T14:25:33.217Z,6.37
2018-12-06T14:35:38.548Z,6.47
2018-12-06T14:45:43.351Z,7.30
2018-12-06T14:55:47.958Z,5.07
2018-12-06T15:05:52.509Z,5.60
2018-12-06T15:15:57.642Z,4.00
2018-12-06T15:26:02.488Z,2.57
2018-12-06T15:36:08.248Z,5.33
2018-12-06T15:46:13.620Z,4.80
2018-12-06T15:56:19.111Z,10.80
2018-12-06T16:06:25.482Z,10.13
2018-12-06T16:16:30.532Z,9.70
2018-12-06T16:26:36.738Z,10.80
2018-12-06T16:36:41.643Z,14.43
2018-12-06T16:46:47.260Z,18.30
2018-12-06T16:56:52.592Z,10.23
2018-12-06T17:06:58.294Z,10.20
2018-12-06T17:17:03.173Z,8.07
2018-12-06T17:27:08.852Z,9.33
2018-12-06T17:37:13.859Z,9.67
2018-12-06T17:47:20.151Z,10.87
2018-12-06T17:57:24.989Z,6.83
2018-12-06T18:07:30.070Z,6.40
2018-12-06T18:17:35.428Z,8.47
2018-12-06T18:27:41.460Z,5.40
2018-12-06T18:37:46.564Z,8.73
2018-12-06T18:47:51.934Z,10.00
2018-12-06T18:57:57.423Z,15.00
2018-12-06T19:08:02.890Z,10.90
2018-12-06T19:18:07.574Z,5.77
2018-12-06T19:28:12.422Z,11.10
2018-12-06T19:38:18.783Z,8.60
2018-12-06T19:48:25.395Z,6.43
2018-12-06T19:58:30.398Z,6.53
2018-12-06T20:08:38.407Z,3.57
2018-12-06T20:18:43.273Z,7.97
2018-12-06T20:28:48.509Z,3.93
2018-12-06T20:38:53.368Z,5.77
2018-12-06T20:48:58.419Z,2.00
2018-12-06T20:59:03.959Z,7.00
2018-12-06T21:09:08.835Z,9.20
2018-12-06T21:19:13.699Z,3.87
2018-12-06T21:29:18.551Z,6.53
2018-12-06T21:39:23.333Z,3.43
2018-12-06T21:49:28.382Z,3.47
2018-12-06T21:59:33.326Z,3.73
2018-12-06T22:09:38.178Z,4.00
2018-12-06T22:19:43.597Z,2.90
2018-12-06T22:29:49.500Z,4.40
2018-12-06T22:39:54.319Z,2.50
2018-12-06T22:49:59.079Z,2.63
2018-12-06T23:00:03.819Z,2.93
2018-12-06T23:10:08.532Z,4.87
2018-12-06T23:20:13.310Z,2.07
2018-12-06T23:30:18.727Z,2.30
2018-12-06T23:40:23.591Z,2.80
2018-12-06T23:50:28.414Z,1.60
